Big Rock, Iowa
Current Conditions -  °F | °C
As of 1:52 PM on Wednesday 17 Dec 2014 (Local Time) from KDVN Reporting Station
Clear Clear  
Wind Chill: 16°   Ceiling: Unl
Heat Index: 27°   Visibility: 10mi
Dew Point: 16°   Wind: 14mph
Humidity: 63%   Direction: 310°NW
Pressure: 30.25"   Gusts: NA
Location:  41.7085°N, 90.7516°W
Report Text: KDVN 171952Z AUTO 31012KT 10SM CLR M03/M09 A3025 RMK AO2 SLP255 T10281089
Loading
Personal Weather Stations






























Interactive Weather Map New forecast layout! Learn more

10-Day Weather Forecast

Advertisements
Track Severe Weather on mobile